sensor_id;sensor_type;location;lat;lon;timestamp;temperature;humidity
22379;DHT22;11357;49.990;7.370;2023-02-01T00:01:29;7.90;93.50
22379;DHT22;11357;49.990;7.370;2023-02-01T00:03:55;7.90;93.50
22379;DHT22;11357;49.990;7.370;2023-02-01T00:06:21;7.90;93.60
22379;DHT22;11357;49.990;7.370;2023-02-01T00:08:46;7.90;93.60
22379;DHT22;11357;49.990;7.370;2023-02-01T00:11:12;7.90;93.60
22379;DHT22;11357;49.990;7.370;2023-02-01T00:13:39;7.90;93.60
22379;DHT22;11357;49.990;7.370;2023-02-01T00:16:08;7.90;93.60
22379;DHT22;11357;49.990;7.370;2023-02-01T00:18:34;7.90;93.60
22379;DHT22;11357;49.990;7.370;2023-02-01T00:21:00;7.90;93.60
22379;DHT22;11357;49.990;7.370;2023-02-01T00:23:26;7.90;93.70
22379;DHT22;11357;49.990;7.370;2023-02-01T00:25:52;7.90;93.70
22379;DHT22;11357;49.990;7.370;2023-02-01T00:28:17;7.90;93.70
22379;DHT22;11357;49.990;7.370;2023-02-01T00:30:43;7.90;93.70
22379;DHT22;11357;49.990;7.370;2023-02-01T00:33:09;8.00;93.70
22379;DHT22;11357;49.990;7.370;2023-02-01T00:35:35;7.90;93.70
22379;DHT22;11357;49.990;7.370;2023-02-01T00:38:01;8.00;93.70
22379;DHT22;11357;49.990;7.370;2023-02-01T00:40:27;7.90;93.80
22379;DHT22;11357;49.990;7.370;2023-02-01T00:42:53;7.90;93.80
22379;DHT22;11357;49.990;7.370;2023-02-01T00:45:19;7.90;93.80
22379;DHT22;11357;49.990;7.370;2023-02-01T00:47:45;7.90;93.80
22379;DHT22;11357;49.990;7.370;2023-02-01T00:50:10;8.00;93.80
22379;DHT22;11357;49.990;7.370;2023-02-01T00:52:36;8.00;93.80
22379;DHT22;11357;49.990;7.370;2023-02-01T00:55:02;8.00;93.80
22379;DHT22;11357;49.990;7.370;2023-02-01T00:57:28;8.00;93.80
22379;DHT22;11357;49.990;7.370;2023-02-01T00:59:53;8.00;93.70
22379;DHT22;11357;49.990;7.370;2023-02-01T01:02:19;8.00;93.70
22379;DHT22;11357;49.990;7.370;2023-02-01T01:04:45;8.00;93.70
22379;DHT22;11357;49.990;7.370;2023-02-01T01:07:10;8.00;93.70
22379;DHT22;11357;49.990;7.370;2023-02-01T01:09:36;8.00;93.70
22379;DHT22;11357;49.990;7.370;2023-02-01T01:12:02;8.00;93.80
22379;DHT22;11357;49.990;7.370;2023-02-01T01:14:31;8.00;93.90
22379;DHT22;11357;49.990;7.370;2023-02-01T01:16:57;8.00;93.90
22379;DHT22;11357;49.990;7.370;2023-02-01T01:19:23;8.00;93.90
22379;DHT22;11357;49.990;7.370;2023-02-01T01:21:48;8.00;93.90
22379;DHT22;11357;49.990;7.370;2023-02-01T01:24:14;8.00;93.90
22379;DHT22;11357;49.990;7.370;2023-02-01T01:26:40;8.00;93.80
22379;DHT22;11357;49.990;7.370;2023-02-01T01:29:06;8.00;93.80
22379;DHT22;11357;49.990;7.370;2023-02-01T01:31:31;8.00;93.90
22379;DHT22;11357;49.990;7.370;2023-02-01T01:33:59;8.00;93.90
22379;DHT22;11357;49.990;7.370;2023-02-01T01:36:26;8.00;94.00
22379;DHT22;11357;49.990;7.370;2023-02-01T01:38:52;8.00;94.00
22379;DHT22;11357;49.990;7.370;2023-02-01T01:41:21;8.00;94.00
22379;DHT22;11357;49.990;7.370;2023-02-01T01:43:55;8.00;94.00
22379;DHT22;11357;49.990;7.370;2023-02-01T01:46:42;8.00;94.00
22379;DHT22;11357;49.990;7.370;2023-02-01T01:49:14;8.00;94.10
22379;DHT22;11357;49.990;7.370;2023-02-01T01:51:46;8.10;94.00
22379;DHT22;11357;49.990;7.370;2023-02-01T01:54:21;8.10;93.90
22379;DHT22;11357;49.990;7.370;2023-02-01T01:56:53;8.10;93.90
22379;DHT22;11357;49.990;7.370;2023-02-01T01:59:22;8.10;93.90
22379;DHT22;11357;49.990;7.370;2023-02-01T02:01:49;8.10;94.00
22379;DHT22;11357;49.990;7.370;2023-02-01T02:04:15;8.10;94.00
22379;DHT22;11357;49.990;7.370;2023-02-01T02:06:56;8.10;94.00
22379;DHT22;11357;49.990;7.370;2023-02-01T02:09:23;8.10;94.00
22379;DHT22;11357;49.990;7.370;2023-02-01T02:11:49;8.10;94.00
22379;DHT22;11357;49.990;7.370;2023-02-01T02:14:17;8.10;93.90
22379;DHT22;11357;49.990;7.370;2023-02-01T02:25:52;8.00;94.00
22379;DHT22;11357;49.990;7.370;2023-02-01T02:31:38;8.10;93.90
22379;DHT22;11357;49.990;7.370;2023-02-01T02:44:57;8.10;94.10
22379;DHT22;11357;49.990;7.370;2023-02-01T02:50:27;8.10;94.10
22379;DHT22;11357;49.990;7.370;2023-02-01T02:53:16;8.00;93.80
22379;DHT22;11357;49.990;7.370;2023-02-01T02:56:03;8.10;93.80
22379;DHT22;11357;49.990;7.370;2023-02-01T02:58:49;8.10;93.80
22379;DHT22;11357;49.990;7.370;2023-02-01T03:01:34;8.10;94.10
22379;DHT22;11357;49.990;7.370;2023-02-01T03:04:18;8.10;93.70
22379;DHT22;11357;49.990;7.370;2023-02-01T03:06:45;8.10;93.70
22379;DHT22;11357;49.990;7.370;2023-02-01T03:09:21;8.10;93.70
22379;DHT22;11357;49.990;7.370;2023-02-01T03:11:49;8.10;93.70
22379;DHT22;11357;49.990;7.370;2023-02-01T03:14:37;8.10;93.70
22379;DHT22;11357;49.990;7.370;2023-02-01T03:17:13;8.10;93.70
22379;DHT22;11357;49.990;7.370;2023-02-01T03:19:43;8.10;93.70
22379;DHT22;11357;49.990;7.370;2023-02-01T03:22:17;8.10;93.60
22379;DHT22;11357;49.990;7.370;2023-02-01T03:25:06;8.20;93.50
22379;DHT22;11357;49.990;7.370;2023-02-01T03:27:41;8.10;93.50
22379;DHT22;11357;49.990;7.370;2023-02-01T03:32:45;8.10;93.50
22379;DHT22;11357;49.990;7.370;2023-02-01T03:35:29;8.10;93.50
22379;DHT22;11357;49.990;7.370;2023-02-01T03:40:46;8.10;93.50
22379;DHT22;11357;49.990;7.370;2023-02-01T03:43:18;8.00;93.50
22379;DHT22;11357;49.990;7.370;2023-02-01T03:45:49;8.00;93.50
22379;DHT22;11357;49.990;7.370;2023-02-01T03:48:16;8.00;93.40
22379;DHT22;11357;49.990;7.370;2023-02-01T03:50:47;8.10;93.40
22379;DHT22;11357;49.990;7.370;2023-02-01T03:53:20;8.00;93.40
22379;DHT22;11357;49.990;7.370;2023-02-01T03:55:48;8.00;93.40
22379;DHT22;11357;49.990;7.370;2023-02-01T03:58:21;8.00;93.40
22379;DHT22;11357;49.990;7.370;2023-02-01T04:00:57;8.00;93.40
22379;DHT22;11357;49.990;7.370;2023-02-01T04:03:24;7.90;93.40
22379;DHT22;11357;49.990;7.370;2023-02-01T04:05:51;7.90;93.50
22379;DHT22;11357;49.990;7.370;2023-02-01T04:08:18;7.90;93.50
22379;DHT22;11357;49.990;7.370;2023-02-01T04:10:44;7.90;93.50
22379;DHT22;11357;49.990;7.370;2023-02-01T04:13:10;7.90;93.50
22379;DHT22;11357;49.990;7.370;2023-02-01T04:15:35;7.90;93.50
22379;DHT22;11357;49.990;7.370;2023-02-01T04:18:01;7.90;93.60
22379;DHT22;11357;49.990;7.370;2023-02-01T04:20:27;7.90;93.50
22379;DHT22;11357;49.990;7.370;2023-02-01T04:22:53;7.90;93.50
22379;DHT22;11357;49.990;7.370;2023-02-01T04:25:19;8.00;93.50
22379;DHT22;11357;49.990;7.370;2023-02-01T04:27:45;8.00;93.50
22379;DHT22;11357;49.990;7.370;2023-02-01T04:30:11;8.00;93.40
22379;DHT22;11357;49.990;7.370;2023-02-01T04:32:38;8.00;93.40
22379;DHT22;11357;49.990;7.370;2023-02-01T04:35:04;8.00;93.40
22379;DHT22;11357;49.990;7.370;2023-02-01T04:37:30;8.00;93.40
22379;DHT22;11357;49.990;7.370;2023-02-01T04:39:55;8.00;93.40
22379;DHT22;11357;49.990;7.370;2023-02-01T04:42:21;8.00;93.40
22379;DHT22;11357;49.990;7.370;2023-02-01T04:44:47;8.00;93.40
22379;DHT22;11357;49.990;7.370;2023-02-01T04:47:13;7.90;93.40
22379;DHT22;11357;49.990;7.370;2023-02-01T04:49:39;7.90;93.50
22379;DHT22;11357;49.990;7.370;2023-02-01T04:52:05;7.90;93.50
22379;DHT22;11357;49.990;7.370;2023-02-01T04:54:31;7.90;93.50
22379;DHT22;11357;49.990;7.370;2023-02-01T04:56:56;7.80;93.50
22379;DHT22;11357;49.990;7.370;2023-02-01T04:59:22;7.90;93.60
22379;DHT22;11357;49.990;7.370;2023-02-01T05:01:48;7.90;93.60
22379;DHT22;11357;49.990;7.370;2023-02-01T05:04:13;7.90;93.60
22379;DHT22;11357;49.990;7.370;2023-02-01T05:06:39;7.90;93.50
22379;DHT22;11357;49.990;7.370;2023-02-01T05:09:04;7.90;93.50
22379;DHT22;11357;49.990;7.370;2023-02-01T05:11:30;7.90;93.50
22379;DHT22;11357;49.990;7.370;2023-02-01T05:14:14;7.90;93.60
22379;DHT22;11357;49.990;7.370;2023-02-01T05:16:40;7.90;93.60
22379;DHT22;11357;49.990;7.370;2023-02-01T05:19:05;7.90;93.60
22379;DHT22;11357;49.990;7.370;2023-02-01T05:21:31;7.90;93.60
22379;DHT22;11357;49.990;7.370;2023-02-01T05:23:57;7.90;93.70
22379;DHT22;11357;49.990;7.370;2023-02-01T05:26:38;7.90;93.70
22379;DHT22;11357;49.990;7.370;2023-02-01T05:29:05;7.90;93.70
22379;DHT22;11357;49.990;7.370;2023-02-01T05:31:31;7.90;93.60
22379;DHT22;11357;49.990;7.370;2023-02-01T05:33:57;7.90;93.70
22379;DHT22;11357;49.990;7.370;2023-02-01T05:36:22;7.90;93.60
22379;DHT22;11357;49.990;7.370;2023-02-01T05:38:48;7.80;93.70
22379;DHT22;11357;49.990;7.370;2023-02-01T05:41:14;7.80;93.70
22379;DHT22;11357;49.990;7.370;2023-02-01T05:43:39;7.80;93.70
22379;DHT22;11357;49.990;7.370;2023-02-01T05:46:05;7.80;93.70
22379;DHT22;11357;49.990;7.370;2023-02-01T05:48:30;7.80;93.60
22379;DHT22;11357;49.990;7.370;2023-02-01T05:50:56;7.80;93.60
22379;DHT22;11357;49.990;7.370;2023-02-01T05:53:22;7.80;93.60
22379;DHT22;11357;49.990;7.370;2023-02-01T05:55:48;7.80;93.50
22379;DHT22;11357;49.990;7.370;2023-02-01T05:58:13;7.80;93.50
22379;DHT22;11357;49.990;7.370;2023-02-01T06:00:39;7.80;93.50
22379;DHT22;11357;49.990;7.370;2023-02-01T06:03:05;7.80;93.50
22379;DHT22;11357;49.990;7.370;2023-02-01T06:05:31;7.80;93.50
22379;DHT22;11357;49.990;7.370;2023-02-01T06:07:57;7.80;93.50
22379;DHT22;11357;49.990;7.370;2023-02-01T06:10:23;7.80;93.50
22379;DHT22;11357;49.990;7.370;2023-02-01T06:12:49;7.80;93.40
22379;DHT22;11357;49.990;7.370;2023-02-01T06:15:14;7.80;93.40
22379;DHT22;11357;49.990;7.370;2023-02-01T06:17:44;7.90;93.40
22379;DHT22;11357;49.990;7.370;2023-02-01T06:20:12;7.80;93.30
22379;DHT22;11357;49.990;7.370;2023-02-01T06:22:38;7.80;93.30
22379;DHT22;11357;49.990;7.370;2023-02-01T06:25:05;7.80;93.30
22379;DHT22;11357;49.990;7.370;2023-02-01T06:27:32;7.80;93.30
22379;DHT22;11357;49.990;7.370;2023-02-01T06:29:57;7.80;93.30
22379;DHT22;11357;49.990;7.370;2023-02-01T06:32:23;7.80;93.30
22379;DHT22;11357;49.990;7.370;2023-02-01T06:34:49;7.80;93.30
22379;DHT22;11357;49.990;7.370;2023-02-01T06:37:15;7.70;93.30
22379;DHT22;11357;49.990;7.370;2023-02-01T06:39:40;7.70;93.30
22379;DHT22;11357;49.990;7.370;2023-02-01T06:42:06;7.70;93.30
22379;DHT22;11357;49.990;7.370;2023-02-01T06:44:32;7.60;93.30
22379;DHT22;11357;49.990;7.370;2023-02-01T06:46:57;7.60;93.30
22379;DHT22;11357;49.990;7.370;2023-02-01T06:49:23;7.60;93.20
22379;DHT22;11357;49.990;7.370;2023-02-01T06:51:49;7.60;93.20
22379;DHT22;11357;49.990;7.370;2023-02-01T06:54:14;7.70;93.10
22379;DHT22;11357;49.990;7.370;2023-02-01T06:56:40;7.60;93.10
22379;DHT22;11357;49.990;7.370;2023-02-01T06:59:06;7.60;93.00
22379;DHT22;11357;49.990;7.370;2023-02-01T07:01:33;7.50;93.00
22379;DHT22;11357;49.990;7.370;2023-02-01T07:03:59;7.40;93.00
22379;DHT22;11357;49.990;7.370;2023-02-01T07:06:25;7.30;92.90
22379;DHT22;11357;49.990;7.370;2023-02-01T07:08:50;7.30;93.00
22379;DHT22;11357;49.990;7.370;2023-02-01T07:11:19;7.20;92.90
22379;DHT22;11357;49.990;7.370;2023-02-01T07:13:45;7.20;92.90
22379;DHT22;11357;49.990;7.370;2023-02-01T07:16:17;7.20;92.80
22379;DHT22;11357;49.990;7.370;2023-02-01T07:18:43;7.20;92.80
22379;DHT22;11357;49.990;7.370;2023-02-01T07:21:09;7.20;92.80
22379;DHT22;11357;49.990;7.370;2023-02-01T07:23:35;7.20;92.80
22379;DHT22;11357;49.990;7.370;2023-02-01T07:26:04;7.20;92.80
22379;DHT22;11357;49.990;7.370;2023-02-01T07:28:32;7.20;92.80
22379;DHT22;11357;49.990;7.370;2023-02-01T07:31:12;7.30;93.10
22379;DHT22;11357;49.990;7.370;2023-02-01T07:33:40;7.30;92.80
22379;DHT22;11357;49.990;7.370;2023-02-01T07:36:07;7.30;92.70
22379;DHT22;11357;49.990;7.370;2023-02-01T07:38:35;7.30;92.70
22379;DHT22;11357;49.990;7.370;2023-02-01T07:41:03;7.30;92.70
22379;DHT22;11357;49.990;7.370;2023-02-01T07:43:29;7.30;92.70
22379;DHT22;11357;49.990;7.370;2023-02-01T07:45:55;7.40;92.70
22379;DHT22;11357;49.990;7.370;2023-02-01T07:48:22;7.40;92.70
22379;DHT22;11357;49.990;7.370;2023-02-01T07:50:56;7.40;92.60
22379;DHT22;11357;49.990;7.370;2023-02-01T07:53:22;7.40;92.60
22379;DHT22;11357;49.990;7.370;2023-02-01T07:55:47;7.40;92.70
22379;DHT22;11357;49.990;7.370;2023-02-01T07:58:13;7.40;92.70
22379;DHT22;11357;49.990;7.370;2023-02-01T08:00:38;7.40;92.60
22379;DHT22;11357;49.990;7.370;2023-02-01T08:03:33;7.40;92.60
22379;DHT22;11357;49.990;7.370;2023-02-01T08:05:59;7.50;92.50
22379;DHT22;11357;49.990;7.370;2023-02-01T08:08:24;7.50;92.50
22379;DHT22;11357;49.990;7.370;2023-02-01T08:10:50;7.50;92.50
22379;DHT22;11357;49.990;7.370;2023-02-01T08:13:16;7.50;92.40
22379;DHT22;11357;49.990;7.370;2023-02-01T08:15:42;7.40;92.30
22379;DHT22;11357;49.990;7.370;2023-02-01T08:18:07;7.40;92.30
22379;DHT22;11357;49.990;7.370;2023-02-01T08:20:35;7.40;92.30
22379;DHT22;11357;49.990;7.370;2023-02-01T08:23:02;7.50;92.30
22379;DHT22;11357;49.990;7.370;2023-02-01T08:25:28;7.50;92.30
22379;DHT22;11357;49.990;7.370;2023-02-01T08:27:53;7.50;92.20
22379;DHT22;11357;49.990;7.370;2023-02-01T08:30:20;7.50;92.10
22379;DHT22;11357;49.990;7.370;2023-02-01T08:32:47;7.60;92.10
22379;DHT22;11357;49.990;7.370;2023-02-01T08:35:13;7.60;92.00
22379;DHT22;11357;49.990;7.370;2023-02-01T08:37:39;7.80;92.00
22379;DHT22;11357;49.990;7.370;2023-02-01T08:40:06;7.80;91.90
22379;DHT22;11357;49.990;7.370;2023-02-01T08:42:32;7.80;91.80
22379;DHT22;11357;49.990;7.370;2023-02-01T08:45:17;7.90;91.80
22379;DHT22;11357;49.990;7.370;2023-02-01T08:47:42;7.80;91.60
22379;DHT22;11357;49.990;7.370;2023-02-01T08:50:09;7.80;91.60
22379;DHT22;11357;49.990;7.370;2023-02-01T08:52:35;7.80;91.60
22379;DHT22;11357;49.990;7.370;2023-02-01T08:55:00;7.80;91.70
22379;DHT22;11357;49.990;7.370;2023-02-01T08:57:26;7.70;91.60
22379;DHT22;11357;49.990;7.370;2023-02-01T08:59:52;7.70;91.60
22379;DHT22;11357;49.990;7.370;2023-02-01T09:02:18;7.70;91.60
22379;DHT22;11357;49.990;7.370;2023-02-01T09:04:43;7.80;91.60
22379;DHT22;11357;49.990;7.370;2023-02-01T09:07:10;7.80;91.50
22379;DHT22;11357;49.990;7.370;2023-02-01T09:09:36;7.90;91.50
22379;DHT22;11357;49.990;7.370;2023-02-01T09:12:03;7.90;91.40
22379;DHT22;11357;49.990;7.370;2023-02-01T09:14:29;7.90;91.30
22379;DHT22;11357;49.990;7.370;2023-02-01T09:16:55;7.90;91.30
22379;DHT22;11357;49.990;7.370;2023-02-01T09:19:20;8.00;91.30
22379;DHT22;11357;49.990;7.370;2023-02-01T09:21:46;8.00;91.20
22379;DHT22;11357;49.990;7.370;2023-02-01T09:24:12;8.10;91.20
22379;DHT22;11357;49.990;7.370;2023-02-01T09:26:38;8.00;91.10
22379;DHT22;11357;49.990;7.370;2023-02-01T09:29:04;8.00;91.10
22379;DHT22;11357;49.990;7.370;2023-02-01T09:31:35;8.00;91.10
22379;DHT22;11357;49.990;7.370;2023-02-01T09:34:01;7.90;91.10
22379;DHT22;11357;49.990;7.370;2023-02-01T09:36:27;7.90;91.10
22379;DHT22;11357;49.990;7.370;2023-02-01T09:38:53;8.00;91.00
22379;DHT22;11357;49.990;7.370;2023-02-01T09:45:08;8.00;91.00
22379;DHT22;11357;49.990;7.370;2023-02-01T09:47:00;8.10;91.00
22379;DHT22;11357;49.990;7.370;2023-02-01T09:49:32;8.20;90.90
22379;DHT22;11357;49.990;7.370;2023-02-01T09:54:40;8.30;90.80
22379;DHT22;11357;49.990;7.370;2023-02-01T09:57:10;8.20;90.80
22379;DHT22;11357;49.990;7.370;2023-02-01T10:02:21;8.20;90.70
22379;DHT22;11357;49.990;7.370;2023-02-01T10:04:49;8.20;90.60
22379;DHT22;11357;49.990;7.370;2023-02-01T10:09:59;8.20;90.70
22379;DHT22;11357;49.990;7.370;2023-02-01T10:33:24;8.10;90.30
22379;DHT22;11357;49.990;7.370;2023-02-01T10:38:45;8.10;90.40
22379;DHT22;11357;49.990;7.370;2023-02-01T10:41:16;8.10;90.40
22379;DHT22;11357;49.990;7.370;2023-02-01T10:43:44;8.00;90.40
22379;DHT22;11357;49.990;7.370;2023-02-01T10:46:11;8.10;90.80
22379;DHT22;11357;49.990;7.370;2023-02-01T10:48:38;8.10;90.40
22379;DHT22;11357;49.990;7.370;2023-02-01T10:51:12;8.10;90.40
22379;DHT22;11357;49.990;7.370;2023-02-01T10:54:03;8.10;90.40
22379;DHT22;11357;49.990;7.370;2023-02-01T10:56:30;8.10;90.30
22379;DHT22;11357;49.990;7.370;2023-02-01T10:59:05;8.10;90.60
22379;DHT22;11357;49.990;7.370;2023-02-01T11:01:34;8.10;90.30
22379;DHT22;11357;49.990;7.370;2023-02-01T11:04:03;8.10;90.30
22379;DHT22;11357;49.990;7.370;2023-02-01T11:06:34;8.10;90.30
22379;DHT22;11357;49.990;7.370;2023-02-01T11:11:33;8.20;90.30
22379;DHT22;11357;49.990;7.370;2023-02-01T11:14:19;8.20;90.20
22379;DHT22;11357;49.990;7.370;2023-02-01T11:16:52;8.20;90.20
22379;DHT22;11357;49.990;7.370;2023-02-01T11:19:18;8.30;90.20
22379;DHT22;11357;49.990;7.370;2023-02-01T11:21:44;8.40;90.10
22379;DHT22;11357;49.990;7.370;2023-02-01T11:24:35;8.50;90.10
22379;DHT22;11357;49.990;7.370;2023-02-01T11:27:05;8.50;90.00
22379;DHT22;11357;49.990;7.370;2023-02-01T11:29:38;8.50;89.90
22379;DHT22;11357;49.990;7.370;2023-02-01T11:32:04;8.50;89.90
22379;DHT22;11357;49.990;7.370;2023-02-01T11:34:55;8.50;89.90
22379;DHT22;11357;49.990;7.370;2023-02-01T11:37:34;8.50;90.00
22379;DHT22;11357;49.990;7.370;2023-02-01T11:43:51;8.50;89.80
22379;DHT22;11357;49.990;7.370;2023-02-01T11:46:01;8.60;89.60
22379;DHT22;11357;49.990;7.370;2023-02-01T11:48:30;8.60;89.50
22379;DHT22;11357;49.990;7.370;2023-02-01T12:00:35;8.60;89.30
22379;DHT22;11357;49.990;7.370;2023-02-01T12:14:22;8.60;89.40
22379;DHT22;11357;49.990;7.370;2023-02-01T12:40:27;8.60;89.40
22379;DHT22;11357;49.990;7.370;2023-02-01T12:45:31;8.60;89.30
22379;DHT22;11357;49.990;7.370;2023-02-01T12:48:05;8.70;89.40
22379;DHT22;11357;49.990;7.370;2023-02-01T12:50:43;8.70;89.20
22379;DHT22;11357;49.990;7.370;2023-02-01T12:55:55;8.90;89.20
22379;DHT22;11357;49.990;7.370;2023-02-01T12:58:49;8.80;88.80
22379;DHT22;11357;49.990;7.370;2023-02-01T13:01:21;8.80;88.70
22379;DHT22;11357;49.990;7.370;2023-02-01T13:04:00;8.80;88.70
22379;DHT22;11357;49.990;7.370;2023-02-01T13:07:14;8.80;88.70
22379;DHT22;11357;49.990;7.370;2023-02-01T13:09:45;8.90;88.70
22379;DHT22;11357;49.990;7.370;2023-02-01T13:12:20;9.10;88.40
22379;DHT22;11357;49.990;7.370;2023-02-01T13:15:14;9.10;88.20
22379;DHT22;11357;49.990;7.370;2023-02-01T13:17:41;9.10;87.90
22379;DHT22;11357;49.990;7.370;2023-02-01T13:22:58;9.20;87.70
22379;DHT22;11357;49.990;7.370;2023-02-01T13:25:48;9.30;87.70
22379;DHT22;11357;49.990;7.370;2023-02-01T13:39:34;9.30;86.40
22379;DHT22;11357;49.990;7.370;2023-02-01T13:42:16;9.30;86.80
22379;DHT22;11357;49.990;7.370;2023-02-01T13:44:52;9.30;86.80
22379;DHT22;11357;49.990;7.370;2023-02-01T13:47:33;9.40;86.50
22379;DHT22;11357;49.990;7.370;2023-02-01T13:50:25;9.40;86.30
22379;DHT22;11357;49.990;7.370;2023-02-01T13:56:07;9.50;86.40
22379;DHT22;11357;49.990;7.370;2023-02-01T13:58:37;9.60;86.40
22379;DHT22;11357;49.990;7.370;2023-02-01T14:06:36;9.60;85.60
22379;DHT22;11357;49.990;7.370;2023-02-01T14:11:51;9.50;85.60
22379;DHT22;11357;49.990;7.370;2023-02-01T14:16:43;9.50;85.60
22379;DHT22;11357;49.990;7.370;2023-02-01T14:19:27;9.50;85.60
22379;DHT22;11357;49.990;7.370;2023-02-01T14:21:54;9.50;85.80
22379;DHT22;11357;49.990;7.370;2023-02-01T14:24:34;9.50;85.80
22379;DHT22;11357;49.990;7.370;2023-02-01T14:29:40;9.50;85.80
22379;DHT22;11357;49.990;7.370;2023-02-01T14:32:24;9.60;85.60
22379;DHT22;11357;49.990;7.370;2023-02-01T14:34:55;9.60;85.60
22379;DHT22;11357;49.990;7.370;2023-02-01T14:37:33;9.70;85.20
22379;DHT22;11357;49.990;7.370;2023-02-01T14:58:47;9.80;83.90
22379;DHT22;11357;49.990;7.370;2023-02-01T15:01:22;9.80;83.80
22379;DHT22;11357;49.990;7.370;2023-02-01T15:09:27;9.90;83.60
22379;DHT22;11357;49.990;7.370;2023-02-01T15:12:05;9.80;83.70
22379;DHT22;11357;49.990;7.370;2023-02-01T15:14:42;9.80;83.70
22379;DHT22;11357;49.990;7.370;2023-02-01T15:19:57;9.70;83.80
22379;DHT22;11357;49.990;7.370;2023-02-01T15:22:24;9.60;83.70
22379;DHT22;11357;49.990;7.370;2023-02-01T15:24:57;9.60;83.90
22379;DHT22;11357;49.990;7.370;2023-02-01T15:27:25;9.50;84.00
22379;DHT22;11357;49.990;7.370;2023-02-01T15:29:51;9.50;84.10
22379;DHT22;11357;49.990;7.370;2023-02-01T15:34:56;9.40;84.30
22379;DHT22;11357;49.990;7.370;2023-02-01T15:37:22;9.40;84.30
22379;DHT22;11357;49.990;7.370;2023-02-01T15:45:25;9.30;84.60
22379;DHT22;11357;49.990;7.370;2023-02-01T15:47:53;9.30;84.70
22379;DHT22;11357;49.990;7.370;2023-02-01T15:50:20;9.30;84.70
22379;DHT22;11357;49.990;7.370;2023-02-01T15:57:51;9.10;84.90
22379;DHT22;11357;49.990;7.370;2023-02-01T16:00:27;9.10;84.90
22379;DHT22;11357;49.990;7.370;2023-02-01T16:02:55;9.10;85.00
22379;DHT22;11357;49.990;7.370;2023-02-01T16:05:42;9.10;85.00
22379;DHT22;11357;49.990;7.370;2023-02-01T16:08:22;9.10;85.10
22379;DHT22;11357;49.990;7.370;2023-02-01T16:10:50;9.10;85.00
22379;DHT22;11357;49.990;7.370;2023-02-01T16:13:17;9.10;84.90
22379;DHT22;11357;49.990;7.370;2023-02-01T16:15:43;9.10;84.90
22379;DHT22;11357;49.990;7.370;2023-02-01T16:18:09;9.10;84.90
22379;DHT22;11357;49.990;7.370;2023-02-01T16:20:38;9.10;84.80
22379;DHT22;11357;49.990;7.370;2023-02-01T16:23:05;9.10;84.80
22379;DHT22;11357;49.990;7.370;2023-02-01T16:25:31;9.10;84.80
22379;DHT22;11357;49.990;7.370;2023-02-01T16:27:57;9.00;84.80
22379;DHT22;11357;49.990;7.370;2023-02-01T16:30:22;9.00;84.90
22379;DHT22;11357;49.990;7.370;2023-02-01T16:32:55;9.00;84.70
22379;DHT22;11357;49.990;7.370;2023-02-01T16:35:31;9.00;84.70
22379;DHT22;11357;49.990;7.370;2023-02-01T16:38:04;9.00;84.80
22379;DHT22;11357;49.990;7.370;2023-02-01T16:40:34;9.00;84.70
22379;DHT22;11357;49.990;7.370;2023-02-01T16:42:59;9.00;84.80
22379;DHT22;11357;49.990;7.370;2023-02-01T16:45:25;9.00;84.90
22379;DHT22;11357;49.990;7.370;2023-02-01T16:47:54;9.00;85.40
22379;DHT22;11357;49.990;7.370;2023-02-01T16:50:24;9.00;84.60
22379;DHT22;11357;49.990;7.370;2023-02-01T16:52:52;8.90;84.40
22379;DHT22;11357;49.990;7.370;2023-02-01T16:55:20;8.90;84.40
22379;DHT22;11357;49.990;7.370;2023-02-01T16:57:46;8.90;84.50
22379;DHT22;11357;49.990;7.370;2023-02-01T17:00:13;8.90;84.40
22379;DHT22;11357;49.990;7.370;2023-02-01T17:07:51;8.90;84.30
22379;DHT22;11357;49.990;7.370;2023-02-01T17:10:26;8.90;84.40
22379;DHT22;11357;49.990;7.370;2023-02-01T17:12:52;8.90;84.50
22379;DHT22;11357;49.990;7.370;2023-02-01T17:15:18;8.90;84.50
22379;DHT22;11357;49.990;7.370;2023-02-01T17:17:44;8.90;84.60
22379;DHT22;11357;49.990;7.370;2023-02-01T17:20:19;8.90;84.70
22379;DHT22;11357;49.990;7.370;2023-02-01T17:22:46;8.90;84.80
22379;DHT22;11357;49.990;7.370;2023-02-01T17:25:20;8.90;84.70
22379;DHT22;11357;49.990;7.370;2023-02-01T17:27:47;8.90;84.80
22379;DHT22;11357;49.990;7.370;2023-02-01T17:30:14;8.90;84.80
22379;DHT22;11357;49.990;7.370;2023-02-01T17:32:40;8.90;85.60
22379;DHT22;11357;49.990;7.370;2023-02-01T17:35:19;8.90;84.80
22379;DHT22;11357;49.990;7.370;2023-02-01T17:37:46;8.90;85.00
22379;DHT22;11357;49.990;7.370;2023-02-01T17:40:12;8.90;85.00
22379;DHT22;11357;49.990;7.370;2023-02-01T17:42:38;8.90;85.10
22379;DHT22;11357;49.990;7.370;2023-02-01T17:45:20;8.90;85.70
22379;DHT22;11357;49.990;7.370;2023-02-01T17:47:47;8.80;85.30
22379;DHT22;11357;49.990;7.370;2023-02-01T17:50:13;8.80;85.20
22379;DHT22;11357;49.990;7.370;2023-02-01T17:52:39;8.80;85.50
22379;DHT22;11357;49.990;7.370;2023-02-01T17:57:41;8.70;85.40
22379;DHT22;11357;49.990;7.370;2023-02-01T18:00:08;8.70;85.40
22379;DHT22;11357;49.990;7.370;2023-02-01T18:02:34;8.70;85.60
22379;DHT22;11357;49.990;7.370;2023-02-01T18:05:00;8.70;85.70
22379;DHT22;11357;49.990;7.370;2023-02-01T18:07:26;8.70;85.70
22379;DHT22;11357;49.990;7.370;2023-02-01T18:09:54;8.80;85.70
22379;DHT22;11357;49.990;7.370;2023-02-01T18:12:22;8.80;85.80
22379;DHT22;11357;49.990;7.370;2023-02-01T18:14:50;8.80;85.80
22379;DHT22;11357;49.990;7.370;2023-02-01T18:17:15;8.80;85.80
22379;DHT22;11357;49.990;7.370;2023-02-01T18:19:41;8.80;85.90
22379;DHT22;11357;49.990;7.370;2023-02-01T18:22:14;8.70;86.00
22379;DHT22;11357;49.990;7.370;2023-02-01T18:24:41;8.70;86.00
22379;DHT22;11357;49.990;7.370;2023-02-01T18:27:06;8.70;86.00
22379;DHT22;11357;49.990;7.370;2023-02-01T18:29:33;8.70;86.10
22379;DHT22;11357;49.990;7.370;2023-02-01T18:31:58;8.70;86.30
22379;DHT22;11357;49.990;7.370;2023-02-01T18:34:24;8.70;86.40
22379;DHT22;11357;49.990;7.370;2023-02-01T18:36:51;8.60;86.40
22379;DHT22;11357;49.990;7.370;2023-02-01T18:39:18;8.70;86.50
22379;DHT22;11357;49.990;7.370;2023-02-01T18:41:48;8.60;86.50
22379;DHT22;11357;49.990;7.370;2023-02-01T18:44:15;8.60;86.60
22379;DHT22;11357;49.990;7.370;2023-02-01T18:46:41;8.60;86.70
22379;DHT22;11357;49.990;7.370;2023-02-01T18:49:07;8.70;86.80
22379;DHT22;11357;49.990;7.370;2023-02-01T18:51:34;8.70;86.80
22379;DHT22;11357;49.990;7.370;2023-02-01T18:54:00;8.60;86.90
22379;DHT22;11357;49.990;7.370;2023-02-01T18:56:25;8.60;87.10
22379;DHT22;11357;49.990;7.370;2023-02-01T18:58:51;8.60;87.20
22379;DHT22;11357;49.990;7.370;2023-02-01T19:01:19;8.60;87.30
22379;DHT22;11357;49.990;7.370;2023-02-01T19:03:49;8.60;87.50
22379;DHT22;11357;49.990;7.370;2023-02-01T19:06:15;8.60;87.50
22379;DHT22;11357;49.990;7.370;2023-02-01T19:08:44;8.60;87.60
22379;DHT22;11357;49.990;7.370;2023-02-01T19:11:10;8.60;87.70
22379;DHT22;11357;49.990;7.370;2023-02-01T19:13:37;8.60;87.80
22379;DHT22;11357;49.990;7.370;2023-02-01T19:16:11;8.60;87.90
22379;DHT22;11357;49.990;7.370;2023-02-01T19:18:38;8.50;88.00